CEB114 RPLL-VHHH
Flight info
| Callsign | CEB114 |
|---|---|
| Flight time | N/A |
| Altitude | 40000 |
| Route | CAB2R CAB A461 NOMAN V533 BETTY BETY3A |
| Aircraft | A339/H-SADE1E2E3GHIJ3J5M1P2RWXY/LB2D1 |
Departure
| Time | 2026-05-05 11:53 |
|---|---|
| Airport | Ninoy Aquino International Airport (RPLL) |
Arrival
| Time | N/A |
|---|---|
| Airport | Hong Kong International Airport (VHHH) |
| Time | Latitude | Longitude | Altitude | Speed | Heading |
|---|---|---|---|---|---|
| 2026-05-05 11:28 | 14.51655 | 121.01511 | 90 ft | 0 kts | 46° |
| 2026-05-05 11:38 | 14.51650 | 121.01506 | 90 ft | 2 kts | 46° |
| 2026-05-05 11:38 | 14.51639 | 121.01495 | 90 ft | 2 kts | 46° |
| 2026-05-05 11:38 | 14.51629 | 121.01483 | 90 ft | 2 kts | 51° |
| 2026-05-05 11:39 | 14.51621 | 121.01470 | 90 ft | 2 kts | 70° |
| 2026-05-05 11:39 | 14.51617 | 121.01456 | 90 ft | 2 kts | 84° |
| 2026-05-05 11:39 | 14.51617 | 121.01440 | 90 ft | 2 kts | 99° |
| 2026-05-05 11:39 | 14.51618 | 121.01435 | 90 ft | 2 kts | 104° |
| 2026-05-05 11:40 | 14.51633 | 121.01406 | 90 ft | 1 kts | 135° |
| 2026-05-05 11:40 | 14.51635 | 121.01405 | 90 ft | 0 kts | 135° |
| 2026-05-05 11:44 | 14.51632 | 121.01407 | 90 ft | 1 kts | 135° |
| 2026-05-05 11:44 | 14.51590 | 121.01450 | 90 ft | 8 kts | 135° |
| 2026-05-05 11:45 | 14.51541 | 121.01502 | 90 ft | 11 kts | 134° |
| 2026-05-05 11:45 | 14.51476 | 121.01570 | 90 ft | 14 kts | 134° |
| 2026-05-05 11:45 | 14.51401 | 121.01648 | 90 ft | 16 kts | 135° |
| 2026-05-05 11:45 | 14.51317 | 121.01736 | 90 ft | 16 kts | 135° |
| 2026-05-05 11:46 | 14.51237 | 121.01819 | 90 ft | 16 kts | 134° |
| 2026-05-05 11:46 | 14.51154 | 121.01904 | 90 ft | 17 kts | 135° |
| 2026-05-05 11:46 | 14.51083 | 121.01977 | 90 ft | 7 kts | 142° |
| 2026-05-05 11:46 | 14.51030 | 121.01961 | 90 ft | 10 kts | 224° |
| 2026-05-05 11:47 | 14.50933 | 121.01796 | 90 ft | 16 kts | 242° |
| 2026-05-05 11:47 | 14.50874 | 121.01687 | 90 ft | 18 kts | 240° |
| 2026-05-05 11:47 | 14.50804 | 121.01563 | 90 ft | 20 kts | 240° |
| 2026-05-05 11:48 | 14.50657 | 121.01303 | 90 ft | 21 kts | 239° |
| 2026-05-05 11:48 | 14.50587 | 121.01171 | 90 ft | 20 kts | 240° |
| 2026-05-05 11:48 | 14.50515 | 121.01043 | 90 ft | 20 kts | 239° |
| 2026-05-05 11:49 | 14.50442 | 121.00914 | 90 ft | 20 kts | 240° |
| 2026-05-05 11:49 | 14.50372 | 121.00787 | 90 ft | 20 kts | 240° |
| 2026-05-05 11:49 | 14.50301 | 121.00659 | 90 ft | 20 kts | 240° |
| 2026-05-05 11:49 | 14.50230 | 121.00532 | 90 ft | 20 kts | 241° |
| 2026-05-05 11:50 | 14.50160 | 121.00405 | 90 ft | 20 kts | 240° |
| 2026-05-05 11:50 | 14.50090 | 121.00278 | 90 ft | 20 kts | 240° |
| 2026-05-05 11:50 | 14.50019 | 121.00152 | 90 ft | 20 kts | 239° |
| 2026-05-05 11:50 | 14.49955 | 121.00040 | 90 ft | 14 kts | 240° |
| 2026-05-05 11:51 | 14.49904 | 120.99974 | 90 ft | 10 kts | 203° |
| 2026-05-05 11:51 | 14.49835 | 120.99991 | 90 ft | 10 kts | 154° |
| 2026-05-05 11:51 | 14.49805 | 121.00043 | 90 ft | 8 kts | 77° |
| 2026-05-05 11:51 | 14.49830 | 121.00093 | 90 ft | 0 kts | 60° |
| 2026-05-05 11:52 | 14.49839 | 121.00109 | 90 ft | 13 kts | 60° |
| 2026-05-05 11:52 | 14.50010 | 121.00424 | 90 ft | 85 kts | 63° |
| 2026-05-05 11:52 | 14.50405 | 121.01131 | 90 ft | 142 kts | 60° |
| 2026-05-05 11:53 | 14.50945 | 121.02104 | 454 ft | 159 kts | 61° |
| 2026-05-05 11:53 | 14.51478 | 121.03071 | 1117 ft | 155 kts | 62° |
| 2026-05-05 11:53 | 14.51991 | 121.04009 | 1794 ft | 151 kts | 62° |
| 2026-05-05 11:53 | 14.52342 | 121.04636 | 2073 ft | 155 kts | 62° |
| 2026-05-05 11:54 | 14.53102 | 121.06009 | 2443 ft | 175 kts | 62° |
| 2026-05-05 11:54 | 14.53514 | 121.06751 | 2623 ft | 185 kts | 62° |
| 2026-05-05 11:54 | 14.53736 | 121.07153 | 2720 ft | 191 kts | 62° |
| 2026-05-05 11:55 | 14.56380 | 121.09996 | 3516 ft | 245 kts | 10° |
| 2026-05-05 11:55 | 14.58802 | 121.09860 | 4019 ft | 271 kts | 353° |
| 2026-05-05 11:55 | 14.60672 | 121.09570 | 4641 ft | 277 kts | 353° |
| 2026-05-05 11:55 | 14.62604 | 121.09302 | 5409 ft | 278 kts | 354° |
| 2026-05-05 11:56 | 14.64516 | 121.09077 | 6166 ft | 279 kts | 356° |
| 2026-05-05 11:56 | 14.66451 | 121.08880 | 6903 ft | 281 kts | 356° |
| 2026-05-05 11:56 | 14.68410 | 121.08698 | 7622 ft | 284 kts | 357° |
| 2026-05-05 11:56 | 14.70371 | 121.08529 | 8324 ft | 287 kts | 358° |
| 2026-05-05 11:57 | 14.72376 | 121.08363 | 9021 ft | 290 kts | 358° |
| 2026-05-05 11:57 | 14.74416 | 121.08199 | 9721 ft | 293 kts | 358° |
| 2026-05-05 11:57 | 14.76446 | 121.08043 | 10374 ft | 297 kts | 358° |
| 2026-05-05 11:57 | 14.78564 | 121.07880 | 10758 ft | 313 kts | 358° |
| 2026-05-05 11:58 | 14.80801 | 121.07709 | 11078 ft | 329 kts | 358° |
| 2026-05-05 11:58 | 14.83120 | 121.07530 | 11634 ft | 336 kts | 358° |
| 2026-05-05 11:58 | 14.85451 | 121.07350 | 12286 ft | 339 kts | 357° |
| 2026-05-05 11:58 | 14.87806 | 121.07166 | 12909 ft | 342 kts | 357° |
| 2026-05-05 11:59 | 14.90203 | 121.06979 | 13519 ft | 346 kts | 357° |
| 2026-05-05 11:59 | 14.92637 | 121.06790 | 14116 ft | 349 kts | 356° |
| 2026-05-05 11:59 | 14.95050 | 121.06602 | 14686 ft | 353 kts | 356° |
| 2026-05-05 11:59 | 14.97530 | 121.06409 | 15261 ft | 357 kts | 356° |
| 2026-05-05 12:00 | 15.00020 | 121.06215 | 15818 ft | 360 kts | 356° |
| 2026-05-05 12:00 | 15.02556 | 121.06017 | 16373 ft | 364 kts | 356° |
| 2026-05-05 12:00 | 15.05071 | 121.05821 | 16902 ft | 368 kts | 356° |
| 2026-05-05 12:00 | 15.07635 | 121.05622 | 17436 ft | 372 kts | 356° |
| 2026-05-05 12:01 | 15.10253 | 121.05418 | 18001 ft | 375 kts | 356° |
| 2026-05-05 12:01 | 15.12854 | 121.05215 | 18558 ft | 378 kts | 356° |
| 2026-05-05 12:01 | 15.15508 | 121.05008 | 19103 ft | 381 kts | 356° |
| 2026-05-05 12:01 | 15.18135 | 121.04803 | 19637 ft | 384 kts | 355° |
| 2026-05-05 12:02 | 15.20810 | 121.04594 | 20156 ft | 387 kts | 355° |
| 2026-05-05 12:02 | 15.23545 | 121.04382 | 20685 ft | 390 kts | 355° |
| 2026-05-05 12:02 | 15.26234 | 121.04171 | 21204 ft | 393 kts | 355° |
| 2026-05-05 12:02 | 15.29007 | 121.03955 | 21704 ft | 396 kts | 355° |
| 2026-05-05 12:03 | 15.31765 | 121.03740 | 22175 ft | 399 kts | 355° |
| 2026-05-05 12:03 | 15.34551 | 121.03521 | 22668 ft | 402 kts | 355° |
| 2026-05-05 12:03 | 15.37321 | 121.03303 | 23133 ft | 405 kts | 355° |
| 2026-05-05 12:03 | 15.40154 | 121.03082 | 23605 ft | 408 kts | 355° |
| 2026-05-05 12:04 | 15.43011 | 121.02859 | 24076 ft | 411 kts | 355° |
| 2026-05-05 12:04 | 15.45867 | 121.02570 | 24528 ft | 413 kts | 350° |
| 2026-05-05 12:04 | 15.48679 | 121.01906 | 24973 ft | 415 kts | 342° |
| 2026-05-05 12:04 | 15.51386 | 121.00832 | 25419 ft | 417 kts | 333° |
| 2026-05-05 12:05 | 15.53984 | 120.99500 | 25864 ft | 419 kts | 332° |
| 2026-05-05 12:05 | 15.56591 | 120.98103 | 26303 ft | 421 kts | 331° |
| 2026-05-05 12:05 | 15.59188 | 120.96701 | 26725 ft | 424 kts | 331° |
| 2026-05-05 12:05 | 15.61845 | 120.95272 | 27145 ft | 427 kts | 331° |
| 2026-05-05 12:06 | 15.64508 | 120.93846 | 27562 ft | 429 kts | 331° |
| 2026-05-05 12:06 | 15.67169 | 120.92423 | 27977 ft | 431 kts | 331° |
| 2026-05-05 12:06 | 15.69815 | 120.91013 | 28382 ft | 434 kts | 331° |
| 2026-05-05 12:06 | 15.72520 | 120.89570 | 28779 ft | 436 kts | 331° |
| 2026-05-05 12:07 | 15.75224 | 120.88129 | 29174 ft | 438 kts | 331° |
| 2026-05-05 12:07 | 15.77972 | 120.86666 | 29574 ft | 440 kts | 331° |
| 2026-05-05 12:07 | 15.80676 | 120.85225 | 29967 ft | 442 kts | 331° |
| 2026-05-05 12:07 | 15.83445 | 120.83749 | 30371 ft | 444 kts | 331° |
| 2026-05-05 12:08 | 15.86204 | 120.82278 | 30752 ft | 446 kts | 331° |
| 2026-05-05 12:08 | 15.88967 | 120.80804 | 31112 ft | 448 kts | 331° |
| 2026-05-05 12:08 | 15.91707 | 120.79342 | 31471 ft | 450 kts | 331° |
| 2026-05-05 12:08 | 15.94529 | 120.77837 | 31839 ft | 452 kts | 331° |
| 2026-05-05 12:09 | 15.97326 | 120.76345 | 32194 ft | 454 kts | 330° |
| 2026-05-05 12:09 | 16.00143 | 120.74840 | 32544 ft | 456 kts | 330° |
| 2026-05-05 12:09 | 16.02965 | 120.73333 | 32906 ft | 458 kts | 330° |
| 2026-05-05 12:09 | 16.05826 | 120.71805 | 33283 ft | 460 kts | 330° |
| 2026-05-05 12:10 | 16.08651 | 120.70294 | 33680 ft | 461 kts | 330° |
| 2026-05-05 12:10 | 16.11529 | 120.68756 | 34086 ft | 462 kts | 330° |
| 2026-05-05 12:10 | 16.14390 | 120.67226 | 34593 ft | 461 kts | 330° |
| 2026-05-05 12:10 | 16.17228 | 120.65709 | 35159 ft | 458 kts | 330° |
| 2026-05-05 12:11 | 16.20025 | 120.64213 | 35693 ft | 455 kts | 330° |
| 2026-05-05 12:11 | 16.22836 | 120.62708 | 36164 ft | 454 kts | 330° |
| 2026-05-05 12:11 | 16.25667 | 120.61191 | 36562 ft | 453 kts | 330° |
| 2026-05-05 12:11 | 16.28444 | 120.59701 | 36861 ft | 455 kts | 330° |
| 2026-05-05 12:12 | 16.31297 | 120.58171 | 37136 ft | 457 kts | 330° |
| 2026-05-05 12:12 | 16.34108 | 120.56664 | 37423 ft | 458 kts | 330° |
| 2026-05-05 12:12 | 16.36950 | 120.55139 | 37720 ft | 458 kts | 330° |
| 2026-05-05 12:12 | 16.39785 | 120.53618 | 37974 ft | 460 kts | 330° |
| 2026-05-05 12:13 | 16.45476 | 120.50561 | 38009 ft | 461 kts | 330° |
| 2026-05-05 12:13 | 16.51174 | 120.47498 | 38011 ft | 461 kts | 330° |
| 2026-05-05 12:14 | 16.56889 | 120.44421 | 37992 ft | 460 kts | 330° |
| 2026-05-05 12:14 | 16.62574 | 120.41361 | 37978 ft | 460 kts | 330° |
| 2026-05-05 12:15 | 16.68155 | 120.38130 | 37973 ft | 458 kts | 326° |
| 2026-05-05 12:15 | 16.73387 | 120.34325 | 37952 ft | 455 kts | 319° |
| 2026-05-05 12:16 | 16.78136 | 120.30013 | 37929 ft | 453 kts | 313° |
| 2026-05-05 12:16 | 16.81789 | 120.26097 | 37920 ft | 452 kts | 311° |
| 2026-05-05 12:17 | 16.86852 | 120.20528 | 37897 ft | 452 kts | 311° |
| 2026-05-05 12:17 | 16.91160 | 120.15791 | 37899 ft | 452 kts | 311° |
| 2026-05-05 12:18 | 16.95489 | 120.11034 | 37895 ft | 451 kts | 311° |
| 2026-05-05 12:18 | 16.99814 | 120.06280 | 37895 ft | 451 kts | 311° |
| 2026-05-05 12:19 | 17.04122 | 120.01541 | 37894 ft | 451 kts | 311° |
| 2026-05-05 12:19 | 17.08448 | 119.96781 | 37890 ft | 450 kts | 311° |
| 2026-05-05 12:20 | 17.12749 | 119.92043 | 37886 ft | 450 kts | 311° |
| 2026-05-05 12:20 | 17.17059 | 119.87292 | 37885 ft | 450 kts | 311° |
| 2026-05-05 12:21 | 17.21346 | 119.82564 | 37880 ft | 450 kts | 311° |
| 2026-05-05 12:21 | 17.25666 | 119.77794 | 37881 ft | 450 kts | 311° |
| 2026-05-05 12:22 | 17.29949 | 119.73064 | 37880 ft | 450 kts | 311° |
| 2026-05-05 12:22 | 17.34250 | 119.68310 | 37878 ft | 449 kts | 311° |
| 2026-05-05 12:23 | 17.38542 | 119.63562 | 37877 ft | 450 kts | 311° |
| 2026-05-05 12:23 | 17.42836 | 119.58807 | 37875 ft | 449 kts | 311° |
| 2026-05-05 12:24 | 17.47120 | 119.54063 | 37875 ft | 449 kts | 311° |
| 2026-05-05 12:24 | 17.51429 | 119.49286 | 37872 ft | 449 kts | 311° |
| 2026-05-05 12:25 | 17.55707 | 119.44540 | 37872 ft | 449 kts | 311° |
| 2026-05-05 12:25 | 17.59995 | 119.39777 | 37871 ft | 450 kts | 311° |
| 2026-05-05 12:26 | 17.64293 | 119.35001 | 37871 ft | 449 kts | 311° |
| 2026-05-05 12:26 | 17.68576 | 119.30238 | 37868 ft | 449 kts | 311° |
| 2026-05-05 12:27 | 17.72862 | 119.25467 | 37864 ft | 449 kts | 311° |
| 2026-05-05 12:27 | 17.77136 | 119.20706 | 37863 ft | 450 kts | 311° |
| 2026-05-05 12:28 | 17.81424 | 119.15926 | 37863 ft | 450 kts | 311° |
| 2026-05-05 12:28 | 17.85686 | 119.11170 | 37863 ft | 449 kts | 311° |
| 2026-05-05 12:29 | 17.89958 | 119.06397 | 37862 ft | 450 kts | 311° |
| 2026-05-05 12:29 | 17.94240 | 119.01608 | 37863 ft | 450 kts | 311° |
| 2026-05-05 12:30 | 17.98540 | 118.96798 | 37860 ft | 450 kts | 311° |
| 2026-05-05 12:30 | 18.02809 | 118.92033 | 37861 ft | 450 kts | 311° |
| 2026-05-05 12:31 | 18.07107 | 118.87233 | 37863 ft | 450 kts | 311° |
| 2026-05-05 12:31 | 18.11373 | 118.82456 | 37866 ft | 449 kts | 311° |
| 2026-05-05 12:32 | 18.15637 | 118.77678 | 37862 ft | 449 kts | 311° |
| 2026-05-05 12:32 | 18.19923 | 118.72868 | 37865 ft | 449 kts | 311° |
| 2026-05-05 12:33 | 18.24172 | 118.68095 | 37864 ft | 449 kts | 311° |
| 2026-05-05 12:33 | 18.28423 | 118.63317 | 37864 ft | 449 kts | 311° |
| 2026-05-05 12:34 | 18.32701 | 118.58504 | 37866 ft | 448 kts | 311° |
| 2026-05-05 12:34 | 18.36948 | 118.53723 | 37869 ft | 448 kts | 311° |
| 2026-05-05 12:35 | 18.41195 | 118.48939 | 37866 ft | 448 kts | 311° |
| 2026-05-05 12:35 | 18.45464 | 118.44125 | 37869 ft | 448 kts | 311° |
| 2026-05-05 12:36 | 18.49714 | 118.39329 | 37869 ft | 448 kts | 311° |
| 2026-05-05 12:36 | 18.53943 | 118.34553 | 37872 ft | 448 kts | 310° |
| 2026-05-05 12:37 | 18.58195 | 118.29748 | 37870 ft | 448 kts | 310° |
| 2026-05-05 12:37 | 18.62452 | 118.24931 | 37873 ft | 447 kts | 310° |
| 2026-05-05 12:38 | 18.66671 | 118.20154 | 37875 ft | 447 kts | 310° |
| 2026-05-05 12:38 | 18.70927 | 118.15331 | 37872 ft | 447 kts | 310° |
| 2026-05-05 12:39 | 18.75141 | 118.10551 | 37875 ft | 448 kts | 310° |
| 2026-05-05 12:39 | 18.79384 | 118.05737 | 37875 ft | 448 kts | 310° |
| 2026-05-05 12:40 | 18.83616 | 118.00929 | 37879 ft | 447 kts | 311° |
| 2026-05-05 12:40 | 18.87853 | 117.96111 | 37878 ft | 448 kts | 310° |
| 2026-05-05 12:41 | 18.92078 | 117.91303 | 37878 ft | 447 kts | 311° |
| 2026-05-05 12:41 | 18.96289 | 117.86502 | 37881 ft | 447 kts | 310° |
| 2026-05-05 12:42 | 19.00516 | 117.81681 | 37885 ft | 447 kts | 311° |
| 2026-05-05 12:42 | 19.04749 | 117.76861 | 37884 ft | 447 kts | 311° |
| 2026-05-05 12:43 | 19.08974 | 117.72053 | 37886 ft | 447 kts | 311° |
| 2026-05-05 12:43 | 19.13194 | 117.67242 | 37888 ft | 446 kts | 311° |
| 2026-05-05 12:44 | 19.17423 | 117.62412 | 37887 ft | 446 kts | 310° |
| 2026-05-05 12:44 | 19.21627 | 117.57604 | 37892 ft | 446 kts | 310° |
| 2026-05-05 12:45 | 19.25813 | 117.52813 | 37890 ft | 446 kts | 310° |
| 2026-05-05 12:45 | 19.30022 | 117.47990 | 37893 ft | 445 kts | 310° |
| 2026-05-05 12:46 | 19.34211 | 117.43187 | 37892 ft | 445 kts | 310° |
| 2026-05-05 12:46 | 19.38407 | 117.38371 | 37894 ft | 445 kts | 310° |
| 2026-05-05 12:47 | 19.42590 | 117.33566 | 37895 ft | 444 kts | 310° |
| 2026-05-05 12:47 | 19.46763 | 117.28770 | 37894 ft | 444 kts | 310° |
| 2026-05-05 12:48 | 19.50955 | 117.23948 | 37892 ft | 443 kts | 310° |
| 2026-05-05 12:48 | 19.55111 | 117.19162 | 37894 ft | 442 kts | 310° |
| 2026-05-05 12:49 | 19.59269 | 117.14371 | 37897 ft | 442 kts | 310° |
| 2026-05-05 12:49 | 19.63420 | 117.09583 | 37895 ft | 442 kts | 310° |
| 2026-05-05 12:50 | 19.67575 | 117.04785 | 37898 ft | 441 kts | 310° |
| 2026-05-05 12:50 | 19.71734 | 116.99982 | 37904 ft | 441 kts | 310° |
| 2026-05-05 12:51 | 19.75861 | 116.95207 | 37899 ft | 441 kts | 310° |
| 2026-05-05 12:51 | 19.80019 | 116.90395 | 37888 ft | 440 kts | 310° |
| 2026-05-05 12:52 | 19.84152 | 116.85607 | 37899 ft | 439 kts | 310° |
| 2026-05-05 12:52 | 19.88259 | 116.80840 | 37904 ft | 439 kts | 310° |
| 2026-05-05 12:53 | 19.92357 | 116.76080 | 37898 ft | 438 kts | 310° |
| 2026-05-05 12:53 | 19.96430 | 116.71267 | 37900 ft | 437 kts | 308° |
| 2026-05-05 12:54 | 19.99529 | 116.67011 | 37905 ft | 436 kts | 303° |
| 2026-05-05 12:55 | 20.04660 | 116.57831 | 37903 ft | 433 kts | 296° |
| 2026-05-05 12:55 | 20.07443 | 116.52195 | 37908 ft | 433 kts | 296° |
| 2026-05-05 12:56 | 20.10232 | 116.46537 | 37909 ft | 432 kts | 296° |
| 2026-05-05 12:56 | 20.13027 | 116.40863 | 37905 ft | 432 kts | 296° |
| 2026-05-05 12:57 | 20.15794 | 116.35246 | 37910 ft | 431 kts | 296° |
| 2026-05-05 12:57 | 20.18576 | 116.29588 | 37912 ft | 431 kts | 296° |
| 2026-05-05 12:58 | 20.21346 | 116.23954 | 37910 ft | 431 kts | 296° |
| 2026-05-05 12:58 | 20.24109 | 116.18324 | 37913 ft | 430 kts | 296° |
| 2026-05-05 12:59 | 20.26880 | 116.12671 | 37912 ft | 430 kts | 296° |
| 2026-05-05 12:59 | 20.29623 | 116.07069 | 37917 ft | 429 kts | 296° |
| 2026-05-05 13:00 | 20.33764 | 115.98616 | 37914 ft | 429 kts | 296° |
| 2026-05-05 13:01 | 20.39268 | 115.87368 | 37918 ft | 429 kts | 296° |
| 2026-05-05 13:01 | 20.42018 | 115.81727 | 37811 ft | 430 kts | 296° |
| 2026-05-05 13:02 | 20.43391 | 115.78911 | 37533 ft | 428 kts | 296° |
| 2026-05-05 13:02 | 20.44740 | 115.76142 | 37260 ft | 425 kts | 296° |
| 2026-05-05 13:02 | 20.46104 | 115.73339 | 36971 ft | 423 kts | 296° |
| 2026-05-05 13:02 | 20.47450 | 115.70570 | 36648 ft | 421 kts | 296° |
| 2026-05-05 13:03 | 20.48225 | 115.68974 | 36410 ft | 421 kts | 296° |
| 2026-05-05 13:03 | 20.49041 | 115.67289 | 36094 ft | 422 kts | 296° |
| 2026-05-05 13:03 | 20.50385 | 115.64518 | 35427 ft | 425 kts | 296° |
| 2026-05-05 13:03 | 20.51764 | 115.61716 | 34764 ft | 427 kts | 298° |
| 2026-05-05 13:04 | 20.53253 | 115.58980 | 34250 ft | 427 kts | 300° |
| 2026-05-05 13:04 | 20.54857 | 115.56353 | 33728 ft | 428 kts | 303° |
| 2026-05-05 13:04 | 20.56619 | 115.53773 | 33188 ft | 428 kts | 306° |
| 2026-05-05 13:04 | 20.58480 | 115.51333 | 32646 ft | 429 kts | 308° |
| 2026-05-05 13:05 | 20.60494 | 115.48962 | 32199 ft | 427 kts | 311° |
| 2026-05-05 13:05 | 20.62578 | 115.46732 | 31835 ft | 422 kts | 312° |
| 2026-05-05 13:05 | 20.64654 | 115.44553 | 31507 ft | 415 kts | 312° |
| 2026-05-05 13:05 | 20.66701 | 115.42411 | 31196 ft | 409 kts | 312° |
| 2026-05-05 13:06 | 20.68724 | 115.40292 | 30898 ft | 410 kts | 312° |
| 2026-05-05 13:06 | 20.70734 | 115.38184 | 30600 ft | 409 kts | 312° |
| 2026-05-05 13:06 | 20.72774 | 115.36045 | 30297 ft | 407 kts | 312° |
| 2026-05-05 13:06 | 20.74779 | 115.33943 | 29999 ft | 405 kts | 312° |
| 2026-05-05 13:07 | 20.76787 | 115.31836 | 29693 ft | 403 kts | 312° |
| 2026-05-05 13:07 | 20.78136 | 115.30420 | 29476 ft | 402 kts | 312° |
| 2026-05-05 13:07 | 20.80117 | 115.28340 | 29131 ft | 400 kts | 312° |